createdAt,value
2018-07-14T00:02:33.935Z,85.25
2018-07-14T00:05:09.463Z,87.62
2018-07-14T00:07:55.647Z,87.33
2018-07-14T00:10:29.104Z,85.42
2018-07-14T00:15:41.804Z,85.86
2018-07-14T00:18:15.497Z,87.70
2018-07-14T00:20:49.084Z,89.52
2018-07-14T00:25:58.940Z,85.45
2018-07-14T00:28:33.341Z,87.34
2018-07-14T00:31:09.580Z,85.07
2018-07-14T00:36:21.033Z,87.28
2018-07-14T00:38:56.308Z,89.01
2018-07-14T00:41:31.294Z,87.86
2018-07-14T00:44:05.798Z,88.18
2018-07-14T00:46:39.217Z,87.50
2018-07-14T00:49:12.249Z,88.49
2018-07-14T00:54:21.971Z,87.50
2018-07-14T00:56:56.161Z,88.62
2018-07-14T00:59:28.838Z,87.12
2018-07-14T01:02:02.719Z,88.57
2018-07-14T01:04:35.699Z,87.06
2018-07-14T01:07:08.993Z,87.95
2018-07-14T01:12:19.754Z,88.29
2018-07-14T01:17:29.447Z,87.80
2018-07-14T01:22:41.527Z,89.26
2018-07-14T01:27:58.672Z,86.30
2018-07-14T01:30:31.010Z,88.38
2018-07-14T01:33:06.554Z,87.85
2018-07-14T01:35:40.897Z,90.50
2018-07-14T01:38:15.023Z,90.30
2018-07-14T01:40:49.316Z,90.12
2018-07-14T01:45:55.550Z,87.87
2018-07-14T01:48:24.664Z,88.44
2018-07-14T01:50:53.796Z,89.89
2018-07-14T01:55:58.727Z,88.17
2018-07-14T01:58:27.769Z,88.01
2018-07-14T02:00:56.836Z,86.52
2018-07-14T02:03:27.897Z,84.62
2018-07-14T02:05:56.950Z,84.28
2018-07-14T02:08:26.006Z,87.41
2018-07-14T02:14:09.109Z,87.85
2018-07-14T02:16:38.195Z,88.11
2018-07-14T02:19:07.267Z,88.58
2018-07-14T02:24:12.073Z,88.49
2018-07-14T02:26:41.131Z,88.91
2018-07-14T02:29:11.168Z,88.76
2018-07-14T02:31:41.218Z,89.84
2018-07-14T02:34:10.275Z,89.87
2018-07-14T02:36:39.383Z,90.95
2018-07-14T02:39:10.443Z,89.86
2018-07-14T02:41:39.500Z,89.64
2018-07-14T02:44:08.548Z,88.54
2018-07-14T02:51:49.052Z,88.33
2018-07-14T02:54:18.136Z,88.32
2018-07-14T02:56:47.162Z,88.69
2018-07-14T02:59:16.293Z,87.91
2018-07-14T03:04:21.110Z,87.33
2018-07-14T03:06:52.153Z,87.02
2018-07-14T03:09:21.196Z,87.26
2018-07-14T03:11:50.410Z,87.71
2018-07-14T03:14:19.452Z,88.04
2018-07-14T03:16:50.481Z,90.55
2018-07-14T03:19:19.546Z,89.97
2018-07-14T03:21:48.581Z,90.29
2018-07-14T03:24:17.637Z,87.87
2018-07-14T03:26:46.682Z,88.25
2018-07-14T03:29:19.754Z,88.59
2018-07-14T03:31:52.670Z,88.38
2018-07-14T03:36:57.422Z,88.15
2018-07-14T03:39:27.389Z,93.38
2018-07-14T03:41:56.439Z,92.20
2018-07-14T03:44:25.662Z,89.86
2018-07-14T03:46:54.718Z,89.14
2018-07-14T03:49:23.784Z,91.34
2018-07-14T03:51:52.842Z,90.86
2018-07-14T03:54:22.933Z,89.93
2018-07-14T03:56:52.025Z,92.33
2018-07-14T03:59:21.065Z,91.23
2018-07-14T04:01:50.125Z,91.81
2018-07-14T04:04:19.345Z,91.55
2018-07-14T04:09:26.334Z,92.11
2018-07-14T04:11:56.453Z,89.34
2018-07-14T04:14:29.653Z,90.32
2018-07-14T04:17:04.177Z,90.11
2018-07-14T04:19:33.239Z,88.92
2018-07-14T04:22:02.463Z,88.67
2018-07-14T04:24:31.523Z,86.34
2018-07-14T04:29:37.252Z,85.06
2018-07-14T04:34:42.315Z,84.05
2018-07-14T04:37:11.367Z,83.99
2018-07-14T04:39:40.427Z,84.58
2018-07-14T04:42:09.501Z,87.21
2018-07-14T04:47:16.201Z,87.24
2018-07-14T04:49:46.389Z,87.81
2018-07-14T04:52:15.505Z,89.95
2018-07-14T04:54:44.554Z,87.31
2018-07-14T04:57:13.616Z,87.04
2018-07-14T04:59:43.009Z,85.58
2018-07-14T05:02:12.065Z,85.78
2018-07-14T05:04:41.205Z,85.73
2018-07-14T05:07:11.239Z,86.79
2018-07-14T05:12:16.024Z,84.98
2018-07-14T05:14:46.069Z,85.19
2018-07-14T05:17:15.147Z,85.68
2018-07-14T05:19:44.175Z,86.08
2018-07-14T05:22:14.257Z,85.17
2018-07-14T05:24:43.316Z,84.91
2018-07-14T05:27:12.375Z,83.75
2018-07-14T05:29:41.793Z,83.45
2018-07-14T05:32:14.420Z,81.83
2018-07-14T05:34:43.776Z,80.97
2018-07-14T05:37:12.825Z,81.03
2018-07-14T05:39:41.873Z,81.23
2018-07-14T05:42:12.386Z,80.78
2018-07-14T05:44:41.461Z,79.10
2018-07-14T05:47:12.499Z,76.97
2018-07-14T05:49:41.551Z,74.86
2018-07-14T05:52:12.933Z,74.27
2018-07-14T05:57:17.930Z,70.99
2018-07-14T05:59:47.158Z,71.19
2018-07-14T06:02:16.221Z,71.32
2018-07-14T06:07:23.014Z,69.20
2018-07-14T06:09:52.057Z,70.87
2018-07-14T06:12:22.160Z,71.61
2018-07-14T06:14:51.411Z,72.02
2018-07-14T06:19:56.202Z,69.76
2018-07-14T06:22:26.363Z,70.80
2018-07-14T06:24:58.646Z,68.08
2018-07-14T06:27:27.719Z,67.97
2018-07-14T06:29:56.776Z,66.69
2018-07-14T06:32:27.292Z,64.63
2018-07-14T06:34:56.808Z,65.48
2018-07-14T06:37:27.846Z,65.25
2018-07-14T06:39:56.904Z,61.27
2018-07-14T06:42:28.932Z,61.86
2018-07-14T06:44:59.995Z,60.21
2018-07-14T06:47:32.025Z,61.11
2018-07-14T06:50:03.080Z,59.97
2018-07-14T06:52:33.310Z,60.91
2018-07-14T06:55:05.984Z,59.53
2018-07-14T06:57:35.030Z,59.62
2018-07-14T07:00:04.100Z,56.81
2018-07-14T07:02:34.101Z,57.68
2018-07-14T07:05:05.149Z,56.15
2018-07-14T07:07:35.751Z,57.40
2018-07-14T07:10:04.792Z,54.73
2018-07-14T07:12:34.797Z,57.17
2018-07-14T07:15:05.837Z,58.66
2018-07-14T07:17:35.555Z,59.50
2018-07-14T07:20:06.906Z,58.83
2018-07-14T07:22:35.965Z,59.37
2018-07-14T07:25:05.015Z,56.28
2018-07-14T07:27:37.880Z,57.28
2018-07-14T07:30:07.918Z,57.47
2018-07-14T07:35:12.795Z,54.52
2018-07-14T07:37:41.981Z,54.28
2018-07-14T07:40:11.186Z,54.05
2018-07-14T07:42:40.446Z,51.14
2018-07-14T07:47:45.252Z,52.13
2018-07-14T07:50:14.693Z,49.55
2018-07-14T07:55:20.541Z,50.02
2018-07-14T07:57:53.793Z,48.67
2018-07-14T08:00:26.585Z,48.47
2018-07-14T08:05:32.403Z,50.24
2018-07-14T08:08:03.393Z,51.24
2018-07-14T08:10:34.437Z,49.80
2018-07-14T08:13:03.736Z,51.42
2018-07-14T08:15:32.789Z,49.06
2018-07-14T08:18:01.852Z,49.72
2018-07-14T08:23:06.795Z,49.15
2018-07-14T08:25:36.655Z,49.21
2018-07-14T08:28:09.866Z,50.71
2018-07-14T08:30:38.924Z,51.72
2018-07-14T08:33:12.100Z,48.96
2018-07-14T08:38:17.127Z,48.95
2018-07-14T08:40:48.112Z,47.23
2018-07-14T08:43:17.174Z,44.82
2018-07-14T08:45:46.463Z,46.85
2018-07-14T08:50:51.282Z,41.57
2018-07-14T08:53:24.745Z,42.91
2018-07-14T08:58:29.638Z,44.26
2018-07-14T09:01:00.195Z,43.86
2018-07-14T09:08:40.771Z,42.31
2018-07-14T09:11:09.829Z,42.74
2018-07-14T09:16:14.726Z,46.22
2018-07-14T09:18:44.845Z,42.56
2018-07-14T09:21:14.174Z,42.35
2018-07-14T09:23:46.647Z,44.57
2018-07-14T09:26:15.704Z,45.45
2018-07-14T09:28:44.742Z,39.92
2018-07-14T09:31:13.960Z,36.43
2018-07-14T09:33:43.008Z,37.18
2018-07-14T09:36:14.091Z,37.88
2018-07-14T09:38:43.220Z,36.11
2018-07-14T09:41:12.702Z,33.44
2018-07-14T09:43:41.829Z,34.31
2018-07-14T09:46:10.893Z,32.96
2018-07-14T09:48:40.281Z,34.73
2018-07-14T09:53:45.132Z,30.44
2018-07-14T09:56:15.510Z,30.96
2018-07-14T09:58:44.573Z,30.28
2018-07-14T10:01:14.556Z,31.56
2018-07-14T10:03:43.638Z,30.44
2018-07-14T10:06:14.848Z,32.40
2018-07-14T10:08:43.900Z,31.39
2018-07-14T10:11:12.966Z,30.90
2018-07-14T10:13:42.556Z,31.38
2018-07-14T10:16:11.597Z,30.93
2018-07-14T10:18:41.618Z,30.05
2018-07-14T10:21:10.694Z,27.64
2018-07-14T10:23:40.104Z,27.05
2018-07-14T10:26:09.198Z,26.28
2018-07-14T10:28:38.261Z,26.52
2018-07-14T10:31:11.107Z,25.79
2018-07-14T10:33:40.559Z,23.93
2018-07-14T10:36:10.765Z,24.01
2018-07-14T10:41:15.817Z,25.70
2018-07-14T10:46:22.600Z,23.67
2018-07-14T10:48:52.421Z,22.06
2018-07-14T10:53:58.541Z,26.24
2018-07-14T10:56:27.781Z,28.35
2018-07-14T10:58:56.799Z,29.35
2018-07-14T11:01:25.985Z,31.13
2018-07-14T11:03:55.834Z,34.84
2018-07-14T11:06:24.876Z,36.96
2018-07-14T11:08:53.925Z,35.27
2018-07-14T11:11:23.289Z,35.47
2018-07-14T11:16:30.322Z,30.94
2018-07-14T11:18:59.777Z,30.47
2018-07-14T11:21:28.833Z,26.65
2018-07-14T11:23:57.886Z,25.55
2018-07-14T11:26:27.637Z,24.71
2018-07-14T11:28:57.238Z,23.66
2018-07-14T11:31:26.361Z,23.21
2018-07-14T11:33:56.362Z,22.37
2018-07-14T11:36:25.970Z,21.98
2018-07-14T11:38:56.147Z,21.55
2018-07-14T11:41:25.186Z,20.54
2018-07-14T11:43:54.256Z,20.07
2018-07-14T11:46:23.537Z,21.37
2018-07-14T11:48:56.260Z,19.87
2018-07-14T11:51:25.353Z,20.64
2018-07-14T11:53:54.452Z,19.34
2018-07-14T11:56:23.909Z,19.13
2018-07-14T11:58:52.969Z,19.44
2018-07-14T12:01:22.062Z,19.99
2018-07-14T12:06:27.780Z,18.08
2018-07-14T12:16:44.881Z,17.82
2018-07-14T12:19:14.037Z,18.47
2018-07-14T12:21:43.089Z,18.60
2018-07-14T12:24:12.142Z,17.85
2018-07-14T12:26:42.193Z,20.09
2018-07-14T12:29:11.726Z,19.91
2018-07-14T12:31:41.681Z,20.70
2018-07-14T12:34:10.871Z,20.58
2018-07-14T12:36:40.910Z,25.12
2018-07-14T12:39:10.563Z,30.53
2018-07-14T12:41:39.685Z,30.61
2018-07-14T12:44:08.758Z,33.27
2018-07-14T12:46:38.142Z,34.88
2018-07-14T12:49:08.798Z,34.24
2018-07-14T12:51:38.037Z,35.80
2018-07-14T12:54:09.217Z,34.62
2018-07-14T12:56:39.038Z,35.02
2018-07-14T13:01:44.390Z,35.41
2018-07-14T13:04:13.673Z,30.74
2018-07-14T13:06:42.794Z,27.98
2018-07-14T13:09:11.881Z,25.39
2018-07-14T13:11:41.264Z,22.37
2018-07-14T13:14:11.329Z,21.23
2018-07-14T13:16:40.545Z,20.06
2018-07-14T13:19:10.208Z,21.84
2018-07-14T13:24:15.331Z,20.38
2018-07-14T13:26:45.424Z,20.73
2018-07-14T13:29:14.628Z,24.93
2018-07-14T13:31:43.755Z,26.09
2018-07-14T13:34:14.316Z,23.65
2018-07-14T13:36:43.417Z,23.68
2018-07-14T13:39:12.461Z,22.47
2018-07-14T13:41:41.701Z,21.76
2018-07-14T13:44:11.922Z,21.72
2018-07-14T13:49:19.440Z,19.33
2018-07-14T13:51:49.156Z,19.77
2018-07-14T13:56:59.165Z,20.31
2018-07-14T13:59:28.358Z,21.07
2018-07-14T14:01:58.619Z,22.68
2018-07-14T14:04:27.860Z,24.54
2018-07-14T14:06:57.021Z,26.06
2018-07-14T14:09:26.402Z,27.46
2018-07-14T14:11:55.600Z,28.40
2018-07-14T14:14:25.634Z,29.52
2018-07-14T14:16:56.677Z,30.78
2018-07-14T14:19:26.094Z,32.31
2018-07-14T14:21:55.288Z,32.54
2018-07-14T14:27:00.324Z,34.61
2018-07-14T14:29:29.489Z,34.36
2018-07-14T14:31:58.546Z,33.11
2018-07-14T14:34:28.794Z,31.06
2018-07-14T14:36:57.958Z,31.92
2018-07-14T14:39:26.991Z,33.22
2018-07-14T14:41:56.291Z,38.43
2018-07-14T14:44:25.608Z,38.50
2018-07-14T14:46:54.680Z,39.86
2018-07-14T14:49:23.726Z,40.65
2018-07-14T14:54:28.637Z,40.31
2018-07-14T14:59:34.089Z,40.49
2018-07-14T15:02:03.429Z,40.72
2018-07-14T15:07:08.384Z,41.92
2018-07-14T15:09:38.581Z,45.23
2018-07-14T15:12:10.246Z,47.00
2018-07-14T15:14:39.518Z,52.77
2018-07-14T15:19:45.105Z,78.02
2018-07-14T15:22:21.267Z,86.11
2018-07-14T15:32:49.107Z,96.50
2018-07-14T15:35:23.042Z,92.14
2018-07-14T15:40:31.954Z,90.54
2018-07-14T15:45:38.390Z,90.06
2018-07-14T15:48:07.662Z,94.84
2018-07-14T15:50:42.641Z,84.92
2018-07-14T15:53:12.009Z,79.87
2018-07-14T15:55:44.212Z,80.34
2018-07-14T15:58:13.117Z,88.81
2018-07-14T16:00:42.550Z,81.78
2018-07-14T16:03:13.088Z,82.05
2018-07-14T16:05:42.034Z,78.94
2018-07-14T16:08:10.576Z,77.75
2018-07-14T16:10:39.104Z,67.18
2018-07-14T16:13:09.080Z,64.55
2018-07-14T16:15:37.640Z,64.35
2018-07-14T16:18:06.220Z,68.31
2018-07-14T16:20:35.306Z,70.96
2018-07-14T16:23:03.849Z,80.31
2018-07-14T16:25:32.440Z,82.63
2018-07-14T16:28:01.631Z,81.88
2018-07-14T16:30:30.129Z,80.59
2018-07-14T16:32:58.677Z,80.52
2018-07-14T16:35:28.367Z,77.65
2018-07-14T16:38:00.376Z,79.42
2018-07-14T16:40:28.915Z,76.82
2018-07-14T16:42:57.444Z,75.48
2018-07-14T16:45:26.312Z,75.85
2018-07-14T16:47:55.854Z,77.34
2018-07-14T16:50:24.385Z,83.35
2018-07-14T16:52:54.112Z,83.36
2018-07-14T16:55:22.652Z,77.64
2018-07-14T16:57:51.185Z,82.24
2018-07-14T17:00:20.622Z,83.17
2018-07-14T17:02:50.950Z,78.31
2018-07-14T17:05:19.462Z,83.16
2018-07-14T17:07:47.991Z,83.07
2018-07-14T17:10:16.530Z,83.85
2018-07-14T17:12:46.032Z,80.52
2018-07-14T17:15:22.405Z,81.52
2018-07-14T17:17:52.862Z,83.77
2018-07-14T17:20:21.684Z,84.84
2018-07-14T17:22:51.413Z,83.03
2018-07-14T17:25:20.376Z,88.18
2018-07-14T17:27:48.955Z,88.92
2018-07-14T17:30:17.968Z,88.52
2018-07-14T17:32:48.452Z,89.27
2018-07-14T17:35:16.980Z,91.81
2018-07-14T17:37:45.517Z,89.18
2018-07-14T17:40:14.052Z,89.65
2018-07-14T17:42:43.497Z,89.85
2018-07-14T17:45:12.021Z,88.19
2018-07-14T17:47:41.799Z,90.64
2018-07-14T17:50:10.321Z,88.53
2018-07-14T17:52:38.847Z,88.14
2018-07-14T17:55:10.762Z,89.18
2018-07-14T17:57:41.341Z,89.85
2018-07-14T18:00:11.204Z,87.14
2018-07-14T18:02:39.744Z,87.27
2018-07-14T18:05:08.354Z,87.61
2018-07-14T18:07:37.236Z,87.41
2018-07-14T18:10:06.070Z,88.10
2018-07-14T18:12:34.604Z,88.99
2018-07-14T18:15:03.333Z,89.52
2018-07-14T18:17:32.235Z,91.00
2018-07-14T18:20:01.318Z,91.15
2018-07-14T18:22:31.254Z,92.21
2018-07-14T18:25:07.394Z,93.06
2018-07-14T18:27:37.519Z,92.70
2018-07-14T18:30:07.390Z,96.09
2018-07-14T18:32:36.142Z,98.01
2018-07-14T18:35:04.768Z,100.00
2018-07-14T18:37:33.415Z,100.00
2018-07-14T18:40:01.989Z,100.00
2018-07-14T18:42:30.528Z,100.00
2018-07-14T18:44:59.082Z,100.00
2018-07-14T18:47:27.607Z,100.00
2018-07-14T18:49:56.344Z,100.00
2018-07-14T18:52:25.013Z,100.00
2018-07-14T18:54:53.425Z,100.00
2018-07-14T18:57:22.056Z,100.00
2018-07-14T18:59:50.573Z,100.00
2018-07-14T19:02:19.119Z,100.00
2018-07-14T19:04:47.659Z,100.00
2018-07-14T19:07:16.207Z,100.00
2018-07-14T19:09:44.788Z,100.00
2018-07-14T19:12:13.332Z,100.00
2018-07-14T19:14:43.866Z,100.00
2018-07-14T19:17:12.407Z,100.00
2018-07-14T19:19:41.052Z,100.00
2018-07-14T19:22:09.583Z,100.00
2018-07-14T19:24:39.073Z,100.00
2018-07-14T19:27:07.605Z,100.00
2018-07-14T19:29:36.285Z,100.00
2018-07-14T19:32:04.833Z,100.00
2018-07-14T19:34:33.362Z,100.00
2018-07-14T19:37:01.909Z,100.00
2018-07-14T19:39:30.656Z,100.00
2018-07-14T19:41:59.234Z,100.00
2018-07-14T19:44:27.734Z,100.00
2018-07-14T19:46:57.792Z,100.00
2018-07-14T19:49:26.317Z,100.00
2018-07-14T19:51:56.157Z,100.00
2018-07-14T19:54:24.789Z,100.00
2018-07-14T19:56:53.325Z,100.00
2018-07-14T19:59:21.869Z,100.00
2018-07-14T20:01:50.480Z,100.00
2018-07-14T20:04:19.033Z,100.00
2018-07-14T20:06:47.590Z,100.00
2018-07-14T20:09:16.142Z,100.00
2018-07-14T20:11:44.688Z,100.00
2018-07-14T20:14:14.976Z,100.00
2018-07-14T20:16:43.504Z,100.00
2018-07-14T20:19:13.020Z,100.00
2018-07-14T20:21:41.580Z,100.00
2018-07-14T20:24:10.150Z,100.00
2018-07-14T20:26:44.688Z,100.00
2018-07-14T20:29:13.249Z,100.00
2018-07-14T20:31:41.797Z,100.00
2018-07-14T20:34:11.296Z,100.00
2018-07-14T20:36:46.113Z,100.00
2018-07-14T20:39:20.894Z,100.00
2018-07-14T20:41:53.218Z,100.00
2018-07-14T20:44:30.244Z,100.00
2018-07-14T20:47:04.094Z,100.00
2018-07-14T20:49:35.465Z,100.00
2018-07-14T20:52:04.696Z,100.00
2018-07-14T20:54:39.603Z,100.00
2018-07-14T20:57:22.882Z,100.00
2018-07-14T20:59:58.783Z,100.00
2018-07-14T21:02:28.061Z,100.00
2018-07-14T21:04:57.744Z,100.00
2018-07-14T21:07:27.210Z,100.00
2018-07-14T21:10:15.001Z,100.00
2018-07-14T21:12:43.669Z,100.00
2018-07-14T21:15:12.133Z,100.00
2018-07-14T21:17:43.669Z,100.00
2018-07-14T21:20:14.211Z,100.00
2018-07-14T21:22:42.891Z,100.00
2018-07-14T21:25:11.447Z,100.00
2018-07-14T21:27:40.022Z,100.00
2018-07-14T21:30:08.632Z,100.00
2018-07-14T21:32:37.163Z,100.00
2018-07-14T21:35:05.694Z,100.00
2018-07-14T21:37:34.909Z,100.00
2018-07-14T21:40:03.487Z,100.00
2018-07-14T21:42:31.980Z,100.00
2018-07-14T21:45:00.545Z,100.00
2018-07-14T21:47:29.085Z,100.00
2018-07-14T21:49:57.616Z,100.00
2018-07-14T21:52:26.185Z,100.00
2018-07-14T21:54:56.698Z,100.00
2018-07-14T21:57:25.307Z,100.00
2018-07-14T21:59:53.890Z,100.00
2018-07-14T22:02:22.420Z,100.00
2018-07-14T22:04:51.952Z,100.00
2018-07-14T22:07:22.528Z,100.00
2018-07-14T22:09:51.063Z,100.00
2018-07-14T22:12:19.636Z,100.00
2018-07-14T22:14:49.215Z,100.00
2018-07-14T22:17:17.713Z,100.00
2018-07-14T22:19:47.178Z,100.00
2018-07-14T22:22:15.748Z,100.00
2018-07-14T22:24:44.288Z,100.00
2018-07-14T22:27:12.864Z,100.00
2018-07-14T22:29:41.415Z,100.00
2018-07-14T22:32:09.941Z,100.00
2018-07-14T22:34:38.571Z,100.00
2018-07-14T22:37:07.997Z,100.00
2018-07-14T22:39:36.545Z,100.00
2018-07-14T22:42:05.988Z,100.00
2018-07-14T22:44:34.525Z,100.00
2018-07-14T22:47:03.062Z,100.00
2018-07-14T22:49:31.615Z,100.00
2018-07-14T22:52:02.087Z,100.00
2018-07-14T22:54:30.625Z,100.00
2018-07-14T22:57:00.086Z,100.00
2018-07-14T22:59:35.632Z,100.00
2018-07-14T23:02:05.136Z,100.00
2018-07-14T23:04:33.685Z,100.00
2018-07-14T23:07:03.242Z,100.00
2018-07-14T23:09:31.786Z,100.00
2018-07-14T23:12:00.309Z,100.00
2018-07-14T23:14:28.878Z,100.00
2018-07-14T23:16:57.412Z,100.00
2018-07-14T23:19:25.977Z,100.00
2018-07-14T23:21:54.516Z,100.00
2018-07-14T23:24:23.991Z,100.00
2018-07-14T23:26:56.232Z,100.00
2018-07-14T23:29:24.759Z,100.00
2018-07-14T23:31:53.306Z,100.00
2018-07-14T23:34:21.840Z,100.00
2018-07-14T23:36:50.392Z,100.00
2018-07-14T23:39:20.819Z,100.00
2018-07-14T23:41:49.360Z,100.00
2018-07-14T23:44:17.921Z,100.00
2018-07-14T23:46:46.487Z,100.00
2018-07-14T23:49:15.060Z,100.00
2018-07-14T23:51:43.642Z,100.00
2018-07-14T23:54:15.220Z,100.00
2018-07-14T23:56:45.739Z,100.00
2018-07-14T23:59:14.286Z,100.00
